createdAt,value
2022-09-01T00:01:43.987Z,7.30
2022-09-01T00:03:49.212Z,7.00
2022-09-01T00:05:57.098Z,7.57
2022-09-01T00:07:58.814Z,8.70
2022-09-01T00:10:00.751Z,11.03
2022-09-01T00:12:04.967Z,7.07
2022-09-01T00:14:30.224Z,6.37
2022-09-01T00:16:31.080Z,8.27
2022-09-01T00:18:32.868Z,6.87
2022-09-01T00:20:34.621Z,7.57
2022-09-01T00:22:36.478Z,6.70
2022-09-01T00:24:38.308Z,8.03
2022-09-01T00:26:40.211Z,5.90
2022-09-01T00:28:41.939Z,8.43
2022-09-01T00:30:43.601Z,6.60
2022-09-01T00:32:46.893Z,7.53
2022-09-01T00:34:48.595Z,9.27
2022-09-01T00:36:50.584Z,12.77
2022-09-01T00:38:52.402Z,6.37
2022-09-01T00:40:54.798Z,6.20
2022-09-01T00:42:56.435Z,6.23
2022-09-01T00:44:58.028Z,6.53
2022-09-01T00:47:00.243Z,7.97
2022-09-01T00:49:08.080Z,6.90
2022-09-01T00:51:11.098Z,5.63
2022-09-01T00:53:13.523Z,7.30
2022-09-01T00:55:24.809Z,7.27
2022-09-01T00:57:27.543Z,5.90
2022-09-01T00:59:29.687Z,7.63
2022-09-01T01:01:31.288Z,7.20
2022-09-01T01:03:33.055Z,6.00
2022-09-01T01:05:40.643Z,6.20
2022-09-01T01:07:47.591Z,5.90
2022-09-01T01:09:50.979Z,8.93
2022-09-01T01:11:53.435Z,8.43
2022-09-01T01:14:12.182Z,7.37
2022-09-01T01:16:15.991Z,8.23
2022-09-01T01:18:23.202Z,6.73
2022-09-01T01:20:46.859Z,8.07
2022-09-01T01:23:05.788Z,10.73
2022-09-01T01:25:07.979Z,8.53
2022-09-01T01:27:09.549Z,8.93
2022-09-01T01:29:11.803Z,9.33
2022-09-01T01:31:19.534Z,6.33
2022-09-01T01:33:25.412Z,7.73
2022-09-01T01:35:27.758Z,6.93
2022-09-01T01:37:29.924Z,6.10
2022-09-01T01:39:32.633Z,8.80
2022-09-01T01:41:36.192Z,8.27
2022-09-01T01:43:38.881Z,6.53
2022-09-01T01:45:40.472Z,7.17
2022-09-01T01:47:42.391Z,7.57
2022-09-01T01:49:44.142Z,8.07
2022-09-01T01:51:47.390Z,7.23
2022-09-01T01:53:52.746Z,9.23
2022-09-01T01:55:56.166Z,6.27
2022-09-01T01:57:59.285Z,7.40
2022-09-01T02:00:01.687Z,6.97
2022-09-01T02:02:08.689Z,7.73
2022-09-01T02:04:11.514Z,8.43
2022-09-01T02:06:13.295Z,9.40
2022-09-01T02:08:15.844Z,8.80
2022-09-01T02:10:17.548Z,8.83
2022-09-01T02:12:19.500Z,8.20
2022-09-01T02:14:21.826Z,7.13
2022-09-01T02:16:25.667Z,7.17
2022-09-01T02:18:34.250Z,7.30
2022-09-01T02:20:36.801Z,7.03
2022-09-01T02:22:39.508Z,7.27
2022-09-01T02:24:51.484Z,9.47
2022-09-01T02:26:53.126Z,7.03
2022-09-01T02:28:56.113Z,6.63
2022-09-01T02:30:59.808Z,7.93
2022-09-01T02:33:01.913Z,6.93
2022-09-01T02:35:07.350Z,7.83
2022-09-01T02:37:08.966Z,7.13
2022-09-01T02:39:11.455Z,8.73
2022-09-01T02:41:15.454Z,9.10
2022-09-01T02:43:20.695Z,7.70
2022-09-01T02:45:24.143Z,7.40
2022-09-01T02:47:28.105Z,6.93
2022-09-01T02:49:31.468Z,6.97
2022-09-01T02:51:33.424Z,7.23
2022-09-01T02:53:35.988Z,7.93
2022-09-01T02:55:41.024Z,7.47
2022-09-01T02:57:42.644Z,6.63
2022-09-01T02:59:44.237Z,10.47
2022-09-01T03:01:46.941Z,8.33
2022-09-01T03:03:50.262Z,7.47
2022-09-01T03:05:56.448Z,8.27
2022-09-01T03:08:02.298Z,7.97
2022-09-01T03:10:09.743Z,8.07
2022-09-01T03:12:11.421Z,7.07
2022-09-01T03:14:13.384Z,8.77
2022-09-01T03:16:16.300Z,7.17
2022-09-01T03:18:21.117Z,9.37
2022-09-01T03:20:22.828Z,7.37
2022-09-01T03:22:24.473Z,10.03
2022-09-01T03:24:26.297Z,8.30
2022-09-01T03:26:27.924Z,8.23
2022-09-01T03:28:29.959Z,7.53
2022-09-01T03:30:35.397Z,7.10
2022-09-01T03:32:37.159Z,6.93
2022-09-01T03:34:39.570Z,7.93
2022-09-01T03:36:50.344Z,8.57
2022-09-01T03:38:53.045Z,9.30
2022-09-01T03:41:02.193Z,7.83
2022-09-01T03:43:06.384Z,16.83
2022-09-01T03:45:09.195Z,7.77
2022-09-01T03:47:11.319Z,10.90
2022-09-01T03:49:17.631Z,9.50
2022-09-01T03:51:22.793Z,8.90
2022-09-01T03:53:27.452Z,8.50
2022-09-01T03:55:32.450Z,7.60
2022-09-01T03:57:34.540Z,7.47
2022-09-01T03:59:39.067Z,7.67
2022-09-01T04:01:43.838Z,9.30
2022-09-01T04:03:47.632Z,7.27
2022-09-01T04:05:51.340Z,10.50
2022-09-01T04:07:52.943Z,7.23
2022-09-01T04:09:54.679Z,7.93
2022-09-01T04:11:56.280Z,9.00
2022-09-01T04:13:58.542Z,9.57
2022-09-01T04:16:00.208Z,11.60
2022-09-01T04:18:12.042Z,10.67
2022-09-01T04:20:15.407Z,10.67
2022-09-01T04:22:29.254Z,9.87
2022-09-01T04:24:32.925Z,9.50
2022-09-01T04:26:34.496Z,8.70
2022-09-01T04:28:48.324Z,8.67
2022-09-01T04:30:53.213Z,8.37
2022-09-01T04:32:56.172Z,9.67
2022-09-01T04:34:58.015Z,8.83
2022-09-01T04:36:59.628Z,8.47
2022-09-01T04:39:08.794Z,8.30
2022-09-01T04:41:17.692Z,8.43
2022-09-01T04:43:19.700Z,8.87
2022-09-01T04:45:27.355Z,11.40
2022-09-01T04:47:36.163Z,9.47
2022-09-01T04:49:38.179Z,10.53
2022-09-01T04:51:42.395Z,8.50
2022-09-01T04:53:48.850Z,8.60
2022-09-01T04:55:52.543Z,9.43
2022-09-01T04:57:54.859Z,8.60
2022-09-01T05:02:27.344Z,10.30
2022-09-01T05:04:35.148Z,9.43
2022-09-01T05:06:39.538Z,11.50
2022-09-01T05:08:42.054Z,10.97
2022-09-01T05:10:53.239Z,9.07
2022-09-01T05:12:54.786Z,10.20
2022-09-01T05:14:56.730Z,9.53
2022-09-01T05:16:59.110Z,10.80
2022-09-01T05:19:01.563Z,10.27
2022-09-01T05:21:09.973Z,9.63
2022-09-01T05:23:13.187Z,9.57
2022-09-01T05:25:14.897Z,11.60
2022-09-01T05:27:18.164Z,10.43
2022-09-01T05:29:21.118Z,10.17
2022-09-01T05:31:24.595Z,10.53
2022-09-01T05:33:26.308Z,9.37
2022-09-01T05:35:32.723Z,10.97
2022-09-01T05:37:37.597Z,12.20
2022-09-01T05:39:39.569Z,9.43
2022-09-01T05:41:41.582Z,10.57
2022-09-01T05:43:48.297Z,9.20
2022-09-01T05:46:06.085Z,11.30
2022-09-01T05:48:09.478Z,9.70
2022-09-01T05:50:14.599Z,10.23
2022-09-01T05:52:16.527Z,10.27
2022-09-01T05:54:23.183Z,9.57
2022-09-01T05:56:28.977Z,13.10
2022-09-01T05:59:22.623Z,10.20
2022-09-01T06:00:55.951Z,9.70
2022-09-01T06:02:58.166Z,11.00
2022-09-01T06:05:00.381Z,10.57
2022-09-01T06:07:06.017Z,11.20
2022-09-01T06:09:10.608Z,10.83
2022-09-01T06:11:17.763Z,11.03
2022-09-01T06:13:21.967Z,11.83
2022-09-01T06:15:30.876Z,12.80
2022-09-01T06:17:35.897Z,11.50
2022-09-01T06:19:40.084Z,11.77
2022-09-01T06:21:42.358Z,12.63
2022-09-01T06:23:45.031Z,12.27
2022-09-01T06:25:47.609Z,10.73
2022-09-01T06:27:49.462Z,13.83
2022-09-01T06:29:53.711Z,12.40
2022-09-01T06:31:56.843Z,11.90
2022-09-01T06:33:59.996Z,11.50
2022-09-01T06:36:04.072Z,11.93
2022-09-01T06:38:07.021Z,11.80
2022-09-01T06:40:17.210Z,12.07
2022-09-01T06:42:19.916Z,10.73
2022-09-01T06:44:25.102Z,13.57
2022-09-01T06:46:27.964Z,13.23
2022-09-01T06:48:30.924Z,12.07
2022-09-01T06:55:23.146Z,12.13
2022-09-01T06:59:50.500Z,12.10
2022-09-01T07:02:01.448Z,11.30
2022-09-01T07:04:04.144Z,13.77
2022-09-01T07:06:07.393Z,12.60
2022-09-01T07:08:17.907Z,11.63
2022-09-01T07:10:22.763Z,12.43
2022-09-01T07:12:25.745Z,10.90
2022-09-01T07:17:29.436Z,10.73
2022-09-01T07:19:48.888Z,12.80
2022-09-01T07:24:13.035Z,9.93
2022-09-01T07:26:24.679Z,11.63
2022-09-01T07:28:39.916Z,11.13
2022-09-01T07:30:48.641Z,11.07
2022-09-01T07:32:50.653Z,11.73
2022-09-01T07:34:52.434Z,11.00
2022-09-01T07:37:17.352Z,11.47
2022-09-01T07:44:05.439Z,10.60
2022-09-01T07:49:01.887Z,11.40
2022-09-01T07:53:22.635Z,9.57
2022-09-01T07:55:24.294Z,10.30
2022-09-01T07:57:26.551Z,10.40
2022-09-01T07:59:29.537Z,10.10
2022-09-01T08:01:31.239Z,10.33
2022-09-01T08:03:33.095Z,11.33
2022-09-01T08:05:34.804Z,11.13
2022-09-01T08:07:51.623Z,12.17
2022-09-01T08:09:56.016Z,11.50
2022-09-01T08:12:02.297Z,10.43
2022-09-01T08:14:04.687Z,10.43
2022-09-01T08:16:08.702Z,10.17
2022-09-01T08:18:13.856Z,12.20
2022-09-01T08:20:15.809Z,9.17
2022-09-01T08:22:17.403Z,10.30
2022-09-01T08:24:19.625Z,9.70
2022-09-01T08:26:25.159Z,11.03
2022-09-01T08:28:27.062Z,11.73
2022-09-01T08:30:30.063Z,14.80
2022-09-01T08:32:32.327Z,13.50
2022-09-01T08:34:35.191Z,10.53
2022-09-01T08:36:36.860Z,11.27
2022-09-01T08:38:39.704Z,9.57
2022-09-01T08:40:49.570Z,10.03
2022-09-01T08:43:06.690Z,9.53
2022-09-01T08:45:15.763Z,11.53
2022-09-01T08:47:28.747Z,10.50
2022-09-01T08:49:43.043Z,9.27
2022-09-01T08:51:57.333Z,9.43
2022-09-01T08:54:14.807Z,8.73
2022-09-01T08:56:19.974Z,9.77
2022-09-01T08:58:22.277Z,10.17
2022-09-01T09:00:27.600Z,8.87
2022-09-01T09:02:40.539Z,9.75
2022-09-01T09:05:02.250Z,9.38
2022-09-01T09:07:06.906Z,10.23
2022-09-01T09:09:09.335Z,9.20
2022-09-01T09:11:32.295Z,9.00
2022-09-01T09:13:42.639Z,7.43
2022-09-01T09:16:07.468Z,10.63
2022-09-01T09:18:34.506Z,8.05
2022-09-01T09:20:38.371Z,8.90
2022-09-01T09:22:44.925Z,8.55
2022-09-01T09:25:10.832Z,8.30
2022-09-01T09:27:24.300Z,10.27
2022-09-01T09:29:27.301Z,8.40
2022-09-01T09:31:38.661Z,7.53
2022-09-01T09:33:55.735Z,7.78
2022-09-01T09:36:17.117Z,7.68
2022-09-01T09:38:33.059Z,7.82
2022-09-01T09:40:53.233Z,7.30
2022-09-01T09:42:56.639Z,8.50
2022-09-01T09:44:59.069Z,8.13
2022-09-01T09:47:01.350Z,7.32
2022-09-01T09:49:34.896Z,6.15
2022-09-01T09:51:41.924Z,7.63
2022-09-01T09:53:43.504Z,7.35
2022-09-01T09:56:30.303Z,7.20
2022-09-01T09:58:41.568Z,5.82
2022-09-01T10:01:05.111Z,5.78
2022-09-01T10:03:12.258Z,5.82
2022-09-01T10:05:35.346Z,6.88
2022-09-01T10:07:38.070Z,5.35
2022-09-01T10:09:39.659Z,5.13
2022-09-01T10:11:44.998Z,4.72
2022-09-01T10:13:46.616Z,4.30
2022-09-01T10:15:52.165Z,5.35
2022-09-01T10:18:20.530Z,6.70
2022-09-01T10:20:26.760Z,5.00
2022-09-01T10:22:28.340Z,4.75
2022-09-01T10:24:38.896Z,7.45
2022-09-01T10:26:43.302Z,10.32
2022-09-01T10:28:57.664Z,5.22
2022-09-01T10:31:00.281Z,5.38
2022-09-01T10:33:07.982Z,5.22
2022-09-01T10:35:26.181Z,4.72
2022-09-01T10:37:28.212Z,5.97
2022-09-01T10:39:31.099Z,5.18
2022-09-01T10:41:53.258Z,4.82
2022-09-01T10:44:19.307Z,4.45
2022-09-01T10:46:39.049Z,4.20
2022-09-01T10:48:55.766Z,4.50
2022-09-01T10:51:18.256Z,5.50
2022-09-01T10:53:35.608Z,4.93
2022-09-01T10:56:03.509Z,4.70
2022-09-01T11:03:42.233Z,4.40
2022-09-01T11:06:11.338Z,5.30
2022-09-01T11:08:51.029Z,3.78
2022-09-01T11:11:07.999Z,3.72
2022-09-01T11:13:51.415Z,5.22
2022-09-01T11:15:53.682Z,3.85
2022-09-01T11:17:59.662Z,5.00
2022-09-01T11:20:12.798Z,4.88
2022-09-01T11:22:14.350Z,4.07
2022-09-01T11:24:38.311Z,4.03
2022-09-01T11:26:49.718Z,4.78
2022-09-01T11:28:51.333Z,4.38
2022-09-01T11:31:08.708Z,3.90
2022-09-01T11:33:26.229Z,3.65
2022-09-01T11:35:29.033Z,4.60
2022-09-01T11:37:31.077Z,3.72
2022-09-01T11:39:34.841Z,4.47
2022-09-01T11:42:04.391Z,5.63
2022-09-01T11:44:32.447Z,3.80
2022-09-01T11:46:36.794Z,3.47
2022-09-01T11:48:47.116Z,4.53
2022-09-01T11:50:59.804Z,4.18
2022-09-01T11:53:06.349Z,3.97
2022-09-01T11:55:10.231Z,6.65
2022-09-01T11:57:38.825Z,4.95
2022-09-01T11:59:40.491Z,4.60
2022-09-01T12:01:42.055Z,3.92
2022-09-01T12:03:44.528Z,4.32
2022-09-01T12:05:50.220Z,5.40
2022-09-01T12:07:52.745Z,3.50
2022-09-01T12:09:54.396Z,4.90
2022-09-01T12:11:56.373Z,4.95
2022-09-01T12:14:04.721Z,4.32
2022-09-01T12:16:19.036Z,4.25
2022-09-01T12:18:27.829Z,4.55
2022-09-01T12:20:35.245Z,5.78
2022-09-01T12:22:36.981Z,4.50
2022-09-01T12:24:38.629Z,4.40
2022-09-01T12:26:41.501Z,4.35
2022-09-01T12:28:44.010Z,6.15
2022-09-01T12:30:47.747Z,5.88
2022-09-01T12:32:49.984Z,4.65
2022-09-01T12:35:10.811Z,7.45
2022-09-01T12:37:16.030Z,8.27
2022-09-01T12:39:17.530Z,4.63
2022-09-01T12:41:36.544Z,4.28
2022-09-01T12:43:40.763Z,4.20
2022-09-01T12:45:47.584Z,6.35
2022-09-01T12:47:50.973Z,4.07
2022-09-01T12:49:55.444Z,4.05
2022-09-01T12:52:28.228Z,4.47
2022-09-01T12:54:29.954Z,3.83
2022-09-01T12:56:36.169Z,3.25
2022-09-01T12:58:37.793Z,4.75
2022-09-01T13:01:02.896Z,5.05
2022-09-01T13:03:17.907Z,5.05
2022-09-01T13:05:30.591Z,4.93
2022-09-01T13:07:33.608Z,6.15
2022-09-01T13:09:35.346Z,4.05
2022-09-01T13:13:58.559Z,4.28
2022-09-01T13:16:02.669Z,4.95
2022-09-01T13:18:04.638Z,4.72
2022-09-01T13:20:07.903Z,3.88
2022-09-01T13:22:10.102Z,6.05
2022-09-01T13:24:11.791Z,4.32
2022-09-01T13:26:13.459Z,3.95
2022-09-01T13:28:17.325Z,8.40
2022-09-01T13:30:22.335Z,5.80
2022-09-01T13:32:25.245Z,3.83
2022-09-01T13:34:28.716Z,5.15
2022-09-01T13:36:51.149Z,3.63
2022-09-01T13:38:52.205Z,3.53
2022-09-01T13:40:58.006Z,4.03
2022-09-01T13:42:59.692Z,4.57
2022-09-01T13:45:01.714Z,3.58
2022-09-01T13:51:53.969Z,3.85
2022-09-01T13:53:55.599Z,3.90
2022-09-01T13:58:04.309Z,3.80
2022-09-01T14:00:12.477Z,4.15
2022-09-01T14:02:14.164Z,7.80
2022-09-01T14:04:15.885Z,4.70
2022-09-01T14:06:17.535Z,6.82
2022-09-01T14:08:21.517Z,4.82
2022-09-01T14:10:24.962Z,4.10
2022-09-01T14:12:26.701Z,3.90
2022-09-01T14:15:11.244Z,3.88
2022-09-01T14:16:50.300Z,3.63
2022-09-01T14:18:51.959Z,5.63
2022-09-01T14:20:54.619Z,3.70
2022-09-01T14:22:56.198Z,4.30
2022-09-01T14:24:59.418Z,6.07
2022-09-01T14:27:00.986Z,4.60
2022-09-01T14:29:02.904Z,3.83
2022-09-01T14:31:11.616Z,3.65
2022-09-01T14:33:13.342Z,4.13
2022-09-01T14:35:16.187Z,3.67
2022-09-01T14:37:17.808Z,5.57
2022-09-01T14:39:19.492Z,6.38
2022-09-01T14:41:23.943Z,4.00
2022-09-01T14:43:28.681Z,3.35
2022-09-01T14:45:30.272Z,3.75
2022-09-01T14:47:32.083Z,3.15
2022-09-01T14:49:37.050Z,3.00
2022-09-01T14:54:00.543Z,4.10
2022-09-01T14:56:03.032Z,5.03
2022-09-01T14:58:05.110Z,3.75
2022-09-01T15:00:12.459Z,4.70
2022-09-01T15:02:14.386Z,3.85
2022-09-01T15:04:16.034Z,3.08
2022-09-01T15:06:19.920Z,3.08
2022-09-01T15:08:23.960Z,2.70
2022-09-01T15:10:27.276Z,3.55
2022-09-01T15:12:31.096Z,3.00
2022-09-01T15:14:33.063Z,4.40
2022-09-01T15:16:39.578Z,3.13
2022-09-01T15:18:41.284Z,2.92
2022-09-01T15:20:46.330Z,4.72
2022-09-01T15:22:49.734Z,2.60
2022-09-01T15:24:51.298Z,2.90
2022-09-01T15:26:53.091Z,4.47
2022-09-01T15:28:56.962Z,3.95
2022-09-01T15:31:00.269Z,3.10
2022-09-01T15:33:02.138Z,3.08
2022-09-01T15:35:03.939Z,3.78
2022-09-01T15:37:07.418Z,4.03
2022-09-01T15:39:10.639Z,3.17
2022-09-01T15:41:26.855Z,2.85
2022-09-01T15:43:29.035Z,3.85
2022-09-01T15:45:30.713Z,3.05
2022-09-01T15:47:34.566Z,4.82
2022-09-01T15:49:36.179Z,3.88
2022-09-01T15:51:43.527Z,3.65
2022-09-01T15:53:45.626Z,3.95
2022-09-01T15:55:49.717Z,2.70
2022-09-01T15:57:52.542Z,3.55
2022-09-01T15:59:54.366Z,3.00
2022-09-01T16:01:56.216Z,3.00
2022-09-01T16:03:57.946Z,3.40
2022-09-01T16:06:01.169Z,3.95
2022-09-01T16:08:04.839Z,3.17
2022-09-01T16:10:11.347Z,3.15
2022-09-01T16:12:12.940Z,2.97
2022-09-01T16:14:16.080Z,2.70
2022-09-01T16:16:40.498Z,3.28
2022-09-01T16:18:59.006Z,3.45
2022-09-01T16:21:36.670Z,7.90
2022-09-01T16:23:43.087Z,3.25
2022-09-01T16:25:45.667Z,3.85
2022-09-01T16:27:47.278Z,3.25
2022-09-01T16:29:55.160Z,3.00
2022-09-01T16:31:56.908Z,4.68
2022-09-01T16:34:03.752Z,5.05
2022-09-01T16:36:08.512Z,3.92
2022-09-01T16:38:31.244Z,4.05
2022-09-01T16:40:56.357Z,5.13
2022-09-01T16:43:37.902Z,3.35
2022-09-01T16:45:43.310Z,4.45
2022-09-01T16:48:13.184Z,2.85
2022-09-01T16:50:26.959Z,2.97
2022-09-01T16:52:42.477Z,3.63
2022-09-01T16:55:05.214Z,3.13
2022-09-01T16:57:19.549Z,2.85
2022-09-01T16:59:38.068Z,3.40
2022-09-01T17:01:39.631Z,4.55
2022-09-01T17:03:54.239Z,4.38
2022-09-01T17:06:02.734Z,3.83
2022-09-01T17:08:26.551Z,4.35
2022-09-01T17:10:33.693Z,3.72
2022-09-01T17:12:38.415Z,6.93
2022-09-01T17:14:49.458Z,3.47
2022-09-01T17:16:55.343Z,3.55
2022-09-01T17:19:00.291Z,3.15
2022-09-01T17:21:33.312Z,3.70
2022-09-01T17:23:41.026Z,4.65
2022-09-01T17:25:54.310Z,5.38
2022-09-01T17:28:02.213Z,4.38
2022-09-01T17:30:07.207Z,4.38
2022-09-01T17:32:33.073Z,2.95
2022-09-01T17:35:01.580Z,2.97
2022-09-01T17:37:15.719Z,3.80
2022-09-01T17:39:26.274Z,4.15
2022-09-01T17:41:44.575Z,3.25
2022-09-01T17:44:30.751Z,4.03
2022-09-01T17:46:48.079Z,2.85
2022-09-01T17:48:54.958Z,2.92
2022-09-01T17:51:12.566Z,2.67
2022-09-01T17:53:59.540Z,3.05
2022-09-01T17:56:25.511Z,5.13
2022-09-01T17:58:27.119Z,5.40
2022-09-01T18:00:40.273Z,5.15
2022-09-01T18:03:26.112Z,3.17
2022-09-01T18:05:29.533Z,5.65
2022-09-01T18:07:56.647Z,3.55
2022-09-01T18:10:02.589Z,4.80
2022-09-01T18:12:17.090Z,5.57
2022-09-01T18:14:24.398Z,3.63
2022-09-01T18:16:30.991Z,3.50
2022-09-01T18:18:37.440Z,3.35
2022-09-01T18:20:41.887Z,4.35
2022-09-01T18:23:00.672Z,4.07
2022-09-01T18:25:07.654Z,3.92
2022-09-01T18:27:09.262Z,3.38
2022-09-01T18:29:11.070Z,4.43
2022-09-01T18:31:18.299Z,3.47
2022-09-01T18:33:33.074Z,4.18
2022-09-01T18:35:34.753Z,5.45
2022-09-01T18:38:03.784Z,3.28
2022-09-01T18:40:11.391Z,4.80
2022-09-01T18:42:40.475Z,3.72
2022-09-01T18:45:12.077Z,4.72
2022-09-01T18:47:17.117Z,7.72
2022-09-01T18:49:47.124Z,6.45
2022-09-01T18:52:01.251Z,4.55
2022-09-01T18:54:18.190Z,5.97
2022-09-01T18:56:37.401Z,5.55
2022-09-01T18:58:52.062Z,3.13
2022-09-01T19:01:04.002Z,3.33
2022-09-01T19:03:39.148Z,4.32
2022-09-01T19:05:59.768Z,4.90
2022-09-01T19:08:20.964Z,4.18
2022-09-01T19:10:52.674Z,3.47
2022-09-01T19:13:30.384Z,3.83
2022-09-01T19:15:38.083Z,5.38
2022-09-01T19:17:58.558Z,4.93
2022-09-01T19:20:03.176Z,5.45
2022-09-01T19:22:04.967Z,3.53
2022-09-01T19:24:20.441Z,3.35
2022-09-01T19:26:25.203Z,5.35
2022-09-01T19:28:43.843Z,6.45
2022-09-01T19:30:54.916Z,3.53
2022-09-01T19:32:59.518Z,3.63
2022-09-01T19:35:12.080Z,4.15
2022-09-01T19:37:13.880Z,3.92
2022-09-01T19:39:19.938Z,5.15
2022-09-01T19:41:33.016Z,3.42
2022-09-01T19:43:40.425Z,5.07
2022-09-01T19:46:31.469Z,3.75
2022-09-01T19:48:44.723Z,3.90
2022-09-01T19:50:52.211Z,3.45
2022-09-01T19:53:00.598Z,3.70
2022-09-01T19:55:10.164Z,4.68
2022-09-01T19:57:55.919Z,3.60
2022-09-01T20:00:00.427Z,5.35
2022-09-01T20:02:21.400Z,4.65
2022-09-01T20:04:41.228Z,3.38
2022-09-01T20:06:48.016Z,4.10
2022-09-01T20:09:15.198Z,5.07
2022-09-01T20:11:55.742Z,3.75
2022-09-01T20:14:02.171Z,3.47
2022-09-01T20:16:05.909Z,3.78
2022-09-01T20:18:16.639Z,4.82
2022-09-01T20:20:24.634Z,4.63
2022-09-01T20:22:38.173Z,3.50
2022-09-01T20:24:40.008Z,3.60
2022-09-01T20:27:03.831Z,4.63
2022-09-01T20:29:37.815Z,4.15
2022-09-01T20:31:45.501Z,3.40
2022-09-01T20:33:56.067Z,3.97
2022-09-01T20:36:07.094Z,3.92
2022-09-01T20:38:41.830Z,4.90
2022-09-01T20:40:46.086Z,4.57
2022-09-01T20:43:22.976Z,4.43
2022-09-01T20:45:27.224Z,4.80
2022-09-01T20:47:31.337Z,7.05
2022-09-01T20:49:37.227Z,6.15
2022-09-01T20:51:48.051Z,4.25
2022-09-01T20:54:07.090Z,4.18
2022-09-01T20:56:30.009Z,3.90
2022-09-01T20:58:58.515Z,4.43
2022-09-01T21:01:16.863Z,4.50
2022-09-01T21:03:39.990Z,6.25
2022-09-01T21:05:52.902Z,3.95
2022-09-01T21:08:25.968Z,3.95
2022-09-01T21:10:38.613Z,3.70
2022-09-01T21:13:39.438Z,5.20
2022-09-01T21:15:57.363Z,4.07
2022-09-01T21:18:49.876Z,4.07
2022-09-01T21:21:03.745Z,3.80
2022-09-01T21:23:06.855Z,7.47
2022-09-01T21:25:08.691Z,4.63
2022-09-01T21:27:20.347Z,6.65
2022-09-01T21:29:34.079Z,4.72
2022-09-01T21:31:35.687Z,5.13
2022-09-01T21:33:37.327Z,4.35
2022-09-01T21:35:38.944Z,4.57
2022-09-01T21:37:40.583Z,4.25
2022-09-01T21:39:42.156Z,5.83
2022-09-01T21:41:43.795Z,5.93
2022-09-01T21:43:46.495Z,4.07
2022-09-01T21:45:48.966Z,4.90
2022-09-01T21:47:52.095Z,5.57
2022-09-01T21:49:54.465Z,4.30
2022-09-01T21:51:56.067Z,6.07
2022-09-01T21:53:57.655Z,4.83
2022-09-01T21:55:59.889Z,4.60
2022-09-01T21:58:01.882Z,4.67
2022-09-01T22:00:13.088Z,4.27
2022-09-01T22:02:15.256Z,5.93
2022-09-01T22:04:18.307Z,7.53
2022-09-01T22:06:21.138Z,5.20
2022-09-01T22:08:22.996Z,5.10
2022-09-01T22:10:28.328Z,4.23
2022-09-01T22:12:30.202Z,4.32
2022-09-01T22:14:31.812Z,5.28
2022-09-01T22:16:33.707Z,4.83
2022-09-01T22:18:35.483Z,4.53
2022-09-01T22:20:37.865Z,5.47
2022-09-01T22:22:41.087Z,4.63
2022-09-01T22:24:42.657Z,7.03
2022-09-01T22:26:44.993Z,5.47
2022-09-01T22:28:47.259Z,5.07
2022-09-01T22:30:51.127Z,4.67
2022-09-01T22:32:54.068Z,4.87
2022-09-01T22:34:55.618Z,5.63
2022-09-01T22:36:57.285Z,5.97
2022-09-01T22:38:59.835Z,6.50
2022-09-01T22:41:02.312Z,5.30
2022-09-01T22:43:05.622Z,5.27
2022-09-01T22:45:08.550Z,5.33
2022-09-01T22:47:10.539Z,6.80
2022-09-01T22:49:12.359Z,5.40
2022-09-01T22:51:15.096Z,4.30
2022-09-01T22:53:19.378Z,4.50
2022-09-01T22:55:21.027Z,4.80
2022-09-01T22:57:23.019Z,4.47
2022-09-01T22:59:24.598Z,4.73
2022-09-01T23:01:31.550Z,4.97
2022-09-01T23:03:34.775Z,6.40
2022-09-01T23:05:36.419Z,4.40
2022-09-01T23:07:39.802Z,4.77
2022-09-01T23:09:41.556Z,4.30
2022-09-01T23:11:43.623Z,4.20
2022-09-01T23:13:45.467Z,4.00
2022-09-01T23:15:47.059Z,4.13
2022-09-01T23:17:48.614Z,3.97
2022-09-01T23:19:50.312Z,5.37
2022-09-01T23:21:52.675Z,4.70
2022-09-01T23:23:58.751Z,6.10
2022-09-01T23:26:02.374Z,4.77
2022-09-01T23:28:04.086Z,4.17
2022-09-01T23:30:08.232Z,5.93
2022-09-01T23:32:09.909Z,6.30
2022-09-01T23:34:13.339Z,4.90
2022-09-01T23:36:18.405Z,4.67
2022-09-01T23:38:24.703Z,6.37
2022-09-01T23:40:26.379Z,4.63
2022-09-01T23:42:28.114Z,4.10
2022-09-01T23:44:30.150Z,4.30
2022-09-01T23:46:36.996Z,6.32
2022-09-01T23:48:38.863Z,4.60
2022-09-01T23:50:50.883Z,5.23
2022-09-01T23:52:52.552Z,7.00
2022-09-01T23:54:54.640Z,4.30
2022-09-01T23:56:56.244Z,6.10
2022-09-01T23:58:59.426Z,5.90
